Time;durP1;ratioP1;P1;durP2;ratioP2;P2;SDS_P1;SDS_P2;PMS_P1;PMS_P2;Temp;Humidity;BMP_temperature;BMP_pressure;BME280_temperature;BME280_humidity;BME280_pressure;Samples;Min_cycle;Max_cycle;Signal;HPM_P1;HPM_P2
2021/08/29 00:00:07;;;;;;;7.27;3.80;;;13.90;93.10;;;;;;5040711;28;20235;-72
2021/08/29 00:02:33;;;;;;;7.50;4.47;;;14.00;93.00;;;;;;5043085;28;20699;-72
2021/08/29 00:04:58;;;;;;;5.90;4.03;;;14.00;92.50;;;;;;5046312;28;20447;-71
2021/08/29 00:07:24;;;;;;;7.57;4.47;;;14.00;92.40;;;;;;5050079;28;20204;-71
2021/08/29 00:09:50;;;;;;;7.10;4.53;;;14.00;92.30;;;;;;5047603;28;20661;-73
2021/08/29 00:12:15;;;;;;;6.50;4.23;;;14.00;92.60;;;;;;5050725;28;20204;-72
2021/08/29 00:14:41;;;;;;;7.77;4.50;;;13.90;92.60;;;;;;5049784;28;20195;-73
2021/08/29 00:17:07;;;;;;;8.40;4.60;;;13.90;92.80;;;;;;5046375;28;20556;-72
2021/08/29 00:19:33;;;;;;;7.43;4.27;;;14.00;92.80;;;;;;5044849;28;20184;-72
2021/08/29 00:21:59;;;;;;;8.70;4.57;;;14.00;92.70;;;;;;5047552;28;20521;-73
2021/08/29 00:24:24;;;;;;;7.27;4.33;;;14.00;92.80;;;;;;5051072;28;20438;-72
2021/08/29 00:26:50;;;;;;;8.70;5.13;;;14.00;92.80;;;;;;5044837;28;20239;-72
2021/08/29 00:29:16;;;;;;;7.50;4.00;;;14.10;92.60;;;;;;5050637;28;20655;-72
2021/08/29 00:31:42;;;;;;;8.20;4.60;;;14.10;92.60;;;;;;5051423;28;20180;-72
2021/08/29 00:34:07;;;;;;;6.00;4.17;;;14.00;92.50;;;;;;5050873;28;20658;-72
2021/08/29 00:36:33;;;;;;;5.83;4.17;;;14.00;92.80;;;;;;5043562;28;20230;-74
2021/08/29 00:38:59;;;;;;;4.97;3.60;;;14.10;92.80;;;;;;5047685;28;20196;-73
2021/08/29 00:41:27;;;;;;;5.83;4.13;;;14.10;92.60;;;;;;5050226;28;20187;-72
2021/08/29 00:43:52;;;;;;;5.40;4.00;;;14.10;92.50;;;;;;5049533;28;20809;-72
2021/08/29 00:46:18;;;;;;;8.50;4.87;;;14.10;92.60;;;;;;5049607;28;20469;-74
2021/08/29 00:48:45;;;;;;;8.50;4.70;;;14.00;92.80;;;;;;5050709;28;20264;-72
2021/08/29 00:51:15;;;;;;;9.67;4.20;;;14.10;92.80;;;;;;5050818;28;20180;-73
2021/08/29 00:53:54;;;;;;;6.27;4.10;;;14.10;92.80;;;;;;5042468;28;20438;-73
2021/08/29 00:56:24;;;;;;;5.70;4.10;;;14.00;92.80;;;;;;5050796;28;20467;-74
2021/08/29 00:58:51;;;;;;;8.80;4.47;;;14.10;92.80;;;;;;5049298;28;20447;-73
2021/08/29 01:01:42;;;;;;;5.90;3.83;;;14.00;92.80;;;;;;5044172;28;20510;-72
2021/08/29 01:04:15;;;;;;;9.43;4.10;;;14.00;93.10;;;;;;5049534;28;21206;-72
2021/08/29 01:06:47;;;;;;;7.50;4.03;;;14.00;93.20;;;;;;5050544;28;20454;-72
2021/08/29 01:09:16;;;;;;;6.80;4.70;;;14.00;93.00;;;;;;5046252;28;20421;-74
2021/08/29 01:11:46;;;;;;;6.43;4.67;;;14.00;93.00;;;;;;5043008;28;20469;-73
2021/08/29 01:14:15;;;;;;;5.67;4.27;;;14.00;93.30;;;;;;5050271;28;20521;-74
2021/08/29 01:16:44;;;;;;;9.33;4.57;;;14.00;93.40;;;;;;5048317;28;20443;-71
2021/08/29 01:19:16;;;;;;;7.53;4.53;;;14.00;93.30;;;;;;5050179;28;20498;-75
2021/08/29 01:21:43;;;;;;;7.73;4.73;;;13.90;93.50;;;;;;5050508;28;20938;-73
2021/08/29 01:24:13;;;;;;;8.07;5.03;;;13.90;93.80;;;;;;5042839;28;20434;-72
2021/08/29 01:26:53;;;;;;;10.10;5.20;;;13.90;94.00;;;;;;5050543;28;20470;-73
2021/08/29 01:29:23;;;;;;;6.17;4.40;;;13.80;94.20;;;;;;5049388;28;20425;-73
2021/08/29 01:31:50;;;;;;;9.17;5.00;;;13.80;94.50;;;;;;5050318;28;20454;-72
2021/08/29 01:34:18;;;;;;;14.63;5.07;;;13.80;94.50;;;;;;5055143;28;20483;-72
2021/08/29 01:36:53;;;;;;;7.77;4.10;;;13.80;94.60;;;;;;5051700;28;20454;-75
2021/08/29 01:39:20;;;;;;;8.83;4.57;;;13.80;94.80;;;;;;5039046;28;20835;-73
2021/08/29 01:41:49;;;;;;;8.23;4.67;;;13.80;95.00;;;;;;5050033;28;20941;-72
2021/08/29 01:44:17;;;;;;;7.00;4.60;;;13.80;95.10;;;;;;5049624;28;20419;-71
2021/08/29 01:46:43;;;;;;;7.23;4.13;;;13.90;95.10;;;;;;5049915;28;20467;-73
2021/08/29 01:49:11;;;;;;;8.77;4.70;;;13.90;95.20;;;;;;5049066;28;21005;-72
2021/08/29 01:51:38;;;;;;;8.57;4.60;;;14.00;95.10;;;;;;5046929;28;20437;-72
2021/08/29 01:54:04;;;;;;;7.70;4.53;;;13.90;95.00;;;;;;5046161;28;20472;-74
2021/08/29 01:56:30;;;;;;;10.50;5.40;;;13.90;95.10;;;;;;5048475;28;20929;-73
2021/08/29 01:58:55;;;;;;;8.37;5.40;;;13.90;95.20;;;;;;5045102;28;20211;-73
2021/08/29 02:01:21;;;;;;;8.20;5.17;;;13.80;95.40;;;;;;5036999;28;20213;-73
2021/08/29 02:03:48;;;;;;;10.63;5.03;;;13.80;95.60;;;;;;5035085;28;20636;-73
2021/08/29 02:06:36;;;;;;;7.17;4.40;;;13.80;95.70;;;;;;5035430;28;20530;-74
2021/08/29 02:09:08;;;;;;;6.60;4.03;;;13.80;95.70;;;;;;5040812;28;20419;-74
2021/08/29 02:11:39;;;;;;;7.33;5.17;;;13.80;95.70;;;;;;5041764;28;20415;-75
2021/08/29 02:14:09;;;;;;;8.33;5.27;;;13.80;95.70;;;;;;5055741;28;20455;-74
2021/08/29 02:16:40;;;;;;;10.20;5.73;;;13.80;95.90;;;;;;5047785;28;20963;-73
2021/08/29 02:19:06;;;;;;;8.30;5.00;;;13.80;96.10;;;;;;5033182;28;20416;-74
2021/08/29 02:21:33;;;;;;;7.90;4.73;;;13.80;95.80;;;;;;5042835;28;20921;-72
2021/08/29 02:24:01;;;;;;;7.17;4.83;;;13.70;95.90;;;;;;5030403;28;20474;-73
2021/08/29 02:26:27;;;;;;;7.60;4.50;;;13.70;96.00;;;;;;5039065;28;20989;-73
2021/08/29 02:28:54;;;;;;;9.23;4.80;;;13.80;95.90;;;;;;5040120;28;20505;-72
2021/08/29 02:31:21;;;;;;;13.47;5.23;;;13.80;95.70;;;;;;5034843;28;20439;-73
2021/08/29 02:33:48;;;;;;;11.50;6.30;;;13.70;96.10;;;;;;5038132;28;20447;-73
2021/08/29 02:36:18;;;;;;;7.40;4.80;;;13.70;96.10;;;;;;5033488;28;20514;-73
2021/08/29 02:38:46;;;;;;;9.13;5.03;;;13.70;96.30;;;;;;5044908;28;20415;-73
2021/08/29 02:41:13;;;;;;;9.03;5.10;;;13.60;96.60;;;;;;5040849;28;20423;-74
2021/08/29 02:43:40;;;;;;;11.20;4.97;;;13.50;96.80;;;;;;5035139;28;20431;-73
2021/08/29 02:46:07;;;;;;;8.53;4.97;;;13.50;97.30;;;;;;5040597;28;20503;-74
2021/08/29 02:48:33;;;;;;;9.00;5.00;;;13.50;97.50;;;;;;5040762;28;20408;-74
2021/08/29 02:50:59;;;;;;;8.87;5.20;;;13.40;97.50;;;;;;5042868;28;21012;-74
2021/08/29 02:53:25;;;;;;;7.67;4.80;;;13.40;97.60;;;;;;5034118;28;20431;-74
2021/08/29 02:55:56;;;;;;;12.53;5.67;;;13.40;97.80;;;;;;5042927;28;20432;-73
2021/08/29 02:58:23;;;;;;;7.20;4.67;;;13.40;97.90;;;;;;5036551;28;20468;-73
2021/08/29 03:00:49;;;;;;;11.27;5.57;;;13.40;98.10;;;;;;5038172;28;20930;-74
2021/08/29 03:03:15;;;;;;;9.30;5.70;;;13.40;98.30;;;;;;5042755;28;20452;-73
2021/08/29 03:05:41;;;;;;;8.60;4.93;;;13.40;98.30;;;;;;5049184;28;20572;-73
2021/08/29 03:08:08;;;;;;;8.20;5.20;;;13.30;98.30;;;;;;5050279;28;20478;-75
2021/08/29 03:10:34;;;;;;;10.53;5.60;;;13.30;98.50;;;;;;5045755;28;20878;-72
2021/08/29 03:13:03;;;;;;;10.33;5.40;;;13.30;98.60;;;;;;5045030;28;21020;-72
2021/08/29 03:15:30;;;;;;;9.27;4.80;;;13.20;98.80;;;;;;5038008;28;20785;-72
2021/08/29 03:17:57;;;;;;;10.43;5.77;;;13.30;99.00;;;;;;5044434;28;20427;-72
2021/08/29 03:20:24;;;;;;;9.90;5.47;;;13.20;99.00;;;;;;5037520;28;20426;-72
2021/08/29 03:22:50;;;;;;;9.23;5.93;;;13.30;99.00;;;;;;5043882;28;20897;-74
2021/08/29 03:25:16;;;;;;;10.03;5.10;;;13.20;98.90;;;;;;5047620;28;20934;-73
2021/08/29 03:27:42;;;;;;;9.33;5.57;;;13.20;99.00;;;;;;5048553;28;20873;-74
2021/08/29 03:30:08;;;;;;;10.03;5.13;;;13.20;99.00;;;;;;5043043;28;20515;-74
2021/08/29 03:32:34;;;;;;;8.60;4.87;;;13.20;99.10;;;;;;5050764;28;20841;-73
2021/08/29 03:35:01;;;;;;;11.37;5.97;;;13.20;99.20;;;;;;5041463;28;21003;-74
2021/08/29 03:37:28;;;;;;;9.30;5.13;;;13.20;99.30;;;;;;5046504;28;20448;-73
2021/08/29 03:39:54;;;;;;;9.00;5.27;;;13.10;99.40;;;;;;5050657;28;20490;-73
2021/08/29 03:42:21;;;;;;;9.70;5.50;;;13.20;99.60;;;;;;5045707;28;20981;-73
2021/08/29 03:44:47;;;;;;;10.13;5.57;;;13.20;99.60;;;;;;5042696;28;20513;-73
2021/08/29 03:47:14;;;;;;;10.03;5.60;;;13.20;99.50;;;;;;5040749;28;20466;-73
2021/08/29 03:49:40;;;;;;;7.80;5.70;;;13.20;99.60;;;;;;5038956;28;20442;-72
2021/08/29 03:52:06;;;;;;;7.70;5.37;;;13.10;99.40;;;;;;5040809;28;20800;-74
2021/08/29 03:54:32;;;;;;;8.50;5.50;;;13.10;99.60;;;;;;5045421;28;20457;-72
2021/08/29 03:56:59;;;;;;;11.13;6.30;;;13.10;99.60;;;;;;5038694;28;20440;-72
2021/08/29 03:59:25;;;;;;;7.90;5.30;;;13.00;99.70;;;;;;5045180;28;20404;-73
2021/08/29 04:01:51;;;;;;;11.77;5.87;;;13.10;99.80;;;;;;5036760;28;20412;-73
2021/08/29 04:04:17;;;;;;;9.60;5.10;;;13.10;99.80;;;;;;5050264;28;20945;-73
2021/08/29 04:06:45;;;;;;;6.57;4.73;;;13.10;99.80;;;;;;5051899;28;20482;-73
2021/08/29 04:09:14;;;;;;;10.70;6.07;;;13.10;99.80;;;;;;5051351;28;20430;-74
2021/08/29 04:11:43;;;;;;;10.90;5.00;;;13.20;99.80;;;;;;5053332;28;20419;-73
2021/08/29 04:14:12;;;;;;;7.33;4.53;;;13.20;99.70;;;;;;5051279;28;20477;-72
2021/08/29 04:16:39;;;;;;;13.43;6.20;;;13.20;99.70;;;;;;5049436;28;20477;-74
2021/08/29 04:19:05;;;;;;;9.57;6.17;;;13.20;99.80;;;;;;5050840;28;20850;-73
2021/08/29 04:21:32;;;;;;;12.83;6.20;;;13.30;99.80;;;;;;5048301;28;20411;-74
2021/08/29 04:23:58;;;;;;;10.60;6.00;;;13.30;99.70;;;;;;5049835;28;20447;-73
2021/08/29 04:26:24;;;;;;;11.77;6.60;;;13.20;99.60;;;;;;5050028;28;20451;-73
2021/08/29 04:28:50;;;;;;;11.20;6.53;;;13.20;99.70;;;;;;5049441;28;20427;-72
2021/08/29 04:31:32;;;;;;;12.60;6.10;;;13.30;99.80;;;;;;5051463;28;20430;-73
2021/08/29 04:34:05;;;;;;;8.33;5.70;;;13.20;99.70;;;;;;5050885;28;20474;-72
2021/08/29 04:36:32;;;;;;;8.97;5.70;;;13.10;99.70;;;;;;5043231;28;20446;-73
2021/08/29 04:39:03;;;;;;;11.23;6.33;;;13.10;99.90;;;;;;5050406;28;20481;-74
2021/08/29 04:41:29;;;;;;;11.50;5.53;;;13.10;99.90;;;;;;5043359;28;20423;-74
2021/08/29 04:43:55;;;;;;;9.50;5.70;;;13.10;99.90;;;;;;5050805;28;20940;-73
2021/08/29 04:46:21;;;;;;;10.10;5.63;;;13.20;99.90;;;;;;5050982;28;20219;-73
2021/08/29 04:48:46;;;;;;;10.33;6.00;;;13.20;99.90;;;;;;5045266;28;20189;-73
2021/08/29 04:51:12;;;;;;;11.33;6.20;;;13.10;99.90;;;;;;5045884;28;20195;-73
2021/08/29 04:53:38;;;;;;;9.80;5.23;;;13.20;99.90;;;;;;5050962;28;20722;-74
2021/08/29 04:56:03;;;;;;;10.90;6.00;;;13.30;99.90;;;;;;5049927;28;20581;-72
2021/08/29 04:58:29;;;;;;;8.97;5.47;;;13.30;99.90;;;;;;5050625;28;20200;-72
2021/08/29 05:00:55;;;;;;;9.03;5.67;;;13.30;99.90;;;;;;5046278;28;20431;-72
2021/08/29 05:03:21;;;;;;;9.33;5.60;;;13.30;99.90;;;;;;5043202;28;20216;-73
2021/08/29 05:05:46;;;;;;;12.27;5.83;;;13.30;99.90;;;;;;5050583;28;20196;-73
2021/08/29 05:08:12;;;;;;;11.40;6.30;;;13.30;99.90;;;;;;5050154;28;20243;-73
2021/08/29 05:10:38;;;;;;;13.30;6.50;;;13.20;99.90;;;;;;5050449;28;20189;-74
2021/08/29 05:13:03;;;;;;;10.40;5.67;;;13.10;99.90;;;;;;5046325;28;20209;-73
2021/08/29 05:15:30;;;;;;;7.90;4.80;;;13.20;99.90;;;;;;5047796;28;20188;-73
2021/08/29 05:17:56;;;;;;;8.83;5.43;;;13.30;99.90;;;;;;5045793;28;20209;-73
2021/08/29 05:20:21;;;;;;;7.30;4.80;;;13.30;99.90;;;;;;5047816;28;20422;-74
2021/08/29 05:22:47;;;;;;;11.93;5.33;;;13.20;99.90;;;;;;5050642;28;20842;-73
2021/08/29 05:25:13;;;;;;;7.90;5.00;;;13.20;99.90;;;;;;5049932;28;20718;-74
2021/08/29 05:27:39;;;;;;;11.30;6.20;;;13.10;99.90;;;;;;5050453;28;20716;-73
2021/08/29 05:30:05;;;;;;;9.17;5.67;;;13.10;99.90;;;;;;5050755;28;20196;-74
2021/08/29 05:32:31;;;;;;;9.70;6.63;;;13.10;99.90;;;;;;5051651;28;20550;-75
2021/08/29 05:34:57;;;;;;;13.97;6.73;;;13.10;99.90;;;;;;5051021;28;20438;-74
2021/08/29 05:37:23;;;;;;;9.67;6.53;;;13.10;99.90;;;;;;5049762;28;20451;-74
2021/08/29 05:39:48;;;;;;;13.10;7.47;;;13.00;99.90;;;;;;5050011;28;20219;-74
2021/08/29 05:42:14;;;;;;;10.70;6.77;;;13.00;99.90;;;;;;5049409;28;20694;-74
2021/08/29 05:44:40;;;;;;;12.00;7.53;;;13.00;99.90;;;;;;5044609;28;20184;-75
2021/08/29 05:47:06;;;;;;;11.53;6.60;;;13.00;99.90;;;;;;5051135;28;20323;-73
2021/08/29 05:49:32;;;;;;;11.63;6.40;;;13.00;99.90;;;;;;5051309;28;20211;-75
2021/08/29 05:51:58;;;;;;;8.13;5.20;;;13.10;99.90;;;;;;5048381;28;20446;-73
2021/08/29 05:54:23;;;;;;;11.40;7.30;;;13.10;99.90;;;;;;5051266;28;20427;-75
2021/08/29 05:56:49;;;;;;;11.13;5.87;;;13.10;99.90;;;;;;5051100;28;20208;-74
2021/08/29 05:59:15;;;;;;;9.37;5.80;;;13.10;99.90;;;;;;5047931;28;20200;-74
2021/08/29 06:01:40;;;;;;;9.60;5.30;;;13.10;99.90;;;;;;5041649;28;20185;-74
2021/08/29 06:04:06;;;;;;;10.83;6.27;;;13.20;99.90;;;;;;5037196;28;20209;-73
2021/08/29 06:06:33;;;;;;;14.13;6.67;;;13.30;99.90;;;;;;5044592;28;20213;-74
2021/08/29 06:08:59;;;;;;;9.00;4.90;;;13.30;99.90;;;;;;5047451;28;20307;-74
2021/08/29 06:11:25;;;;;;;6.90;4.40;;;13.20;99.90;;;;;;5049402;28;20568;-73
2021/08/29 06:13:50;;;;;;;7.83;4.20;;;13.20;99.90;;;;;;5050703;28;20439;-74
2021/08/29 06:16:16;;;;;;;8.40;4.97;;;13.30;99.90;;;;;;5047136;28;20602;-75
2021/08/29 06:18:42;;;;;;;6.33;4.27;;;13.30;99.90;;;;;;5050017;28;20186;-75
2021/08/29 06:21:08;;;;;;;11.33;5.97;;;13.30;99.90;;;;;;5051279;28;20247;-73
2021/08/29 06:23:34;;;;;;;6.10;4.30;;;13.40;99.90;;;;;;5062213;28;20197;-75
2021/08/29 06:25:59;;;;;;;7.37;4.53;;;13.30;99.90;;;;;;5050419;28;20424;-76
2021/08/29 06:28:25;;;;;;;7.73;4.27;;;13.30;99.90;;;;;;5044589;28;20204;-74
2021/08/29 06:30:51;;;;;;;6.53;4.40;;;13.40;99.90;;;;;;5040154;28;20189;-74
2021/08/29 06:33:16;;;;;;;5.93;3.97;;;13.40;99.90;;;;;;5039471;28;20208;-75
2021/08/29 06:35:42;;;;;;;7.17;4.80;;;13.30;99.90;;;;;;5039786;28;20534;-74
2021/08/29 06:38:08;;;;;;;5.70;3.33;;;13.30;99.90;;;;;;5044920;28;20656;-74
2021/08/29 06:40:34;;;;;;;5.13;3.63;;;13.20;99.90;;;;;;5037957;28;20203;-73
2021/08/29 06:43:00;;;;;;;4.00;3.00;;;13.10;99.90;;;;;;5045585;28;20299;-74
2021/08/29 06:45:26;;;;;;;5.73;3.37;;;13.10;99.90;;;;;;5036083;28;20530;-76
2021/08/29 06:47:52;;;;;;;5.50;3.57;;;13.10;99.90;;;;;;5041363;28;20238;-75
2021/08/29 06:50:17;;;;;;;5.37;3.33;;;13.10;99.90;;;;;;5041097;28;20854;-76
2021/08/29 06:52:43;;;;;;;3.80;2.63;;;13.10;99.90;;;;;;5038547;28;20217;-75
2021/08/29 06:55:09;;;;;;;4.47;2.77;;;13.10;99.90;;;;;;5038263;28;20213;-74
2021/08/29 06:57:35;;;;;;;3.63;2.80;;;13.10;99.90;;;;;;5044357;28;20196;-76
2021/08/29 07:00:01;;;;;;;6.47;2.60;;;13.10;99.90;;;;;;5042373;28;20425;-75
2021/08/29 07:02:28;;;;;;;4.83;2.63;;;13.20;99.90;;;;;;5042324;28;20254;-75
2021/08/29 07:04:54;;;;;;;3.20;2.53;;;13.10;99.80;;;;;;5044304;28;20192;-74
2021/08/29 07:07:20;;;;;;;3.30;2.03;;;13.10;99.90;;;;;;5048670;28;20919;-75
2021/08/29 07:09:46;;;;;;;3.70;2.67;;;13.20;99.90;;;;;;5048359;28;20189;-74
2021/08/29 07:12:12;;;;;;;3.40;2.47;;;13.20;99.90;;;;;;5039189;28;20209;-75
2021/08/29 07:14:38;;;;;;;3.50;2.40;;;13.30;99.90;;;;;;5048175;28;20533;-76
2021/08/29 07:17:04;;;;;;;4.00;2.37;;;13.30;99.90;;;;;;5044975;28;20431;-74
2021/08/29 07:19:30;;;;;;;3.53;2.33;;;13.40;99.90;;;;;;5045717;28;20460;-76
2021/08/29 07:21:56;;;;;;;2.30;1.60;;;13.30;99.90;;;;;;5042083;28;20530;-74
2021/08/29 07:24:22;;;;;;;2.70;1.90;;;13.40;99.90;;;;;;5042239;28;20271;-73
2021/08/29 07:26:47;;;;;;;2.30;2.00;;;13.50;99.80;;;;;;5045291;28;20204;-75
2021/08/29 07:29:13;;;;;;;3.20;2.20;;;13.40;99.50;;;;;;5040793;28;20865;-75
2021/08/29 07:31:39;;;;;;;2.67;1.90;;;13.40;99.40;;;;;;5044229;28;20176;-75
2021/08/29 07:34:05;;;;;;;3.67;2.10;;;13.50;99.30;;;;;;5037794;28;20201;-75
2021/08/29 07:36:30;;;;;;;2.53;1.80;;;13.50;99.30;;;;;;5044731;28;20212;-74
2021/08/29 07:38:56;;;;;;;2.20;1.77;;;13.60;99.30;;;;;;5041006;28;20299;-76
2021/08/29 07:41:22;;;;;;;2.13;1.70;;;13.70;99.20;;;;;;5042170;28;20316;-75
2021/08/29 07:43:47;;;;;;;2.30;1.80;;;13.60;99.00;;;;;;5044207;28;20212;-74
2021/08/29 07:46:13;;;;;;;2.40;1.83;;;13.60;99.00;;;;;;5039595;28;20177;-75
2021/08/29 07:48:39;;;;;;;9.33;2.33;;;13.50;99.30;;;;;;5042730;28;20216;-74
2021/08/29 07:51:05;;;;;;;2.57;2.10;;;13.50;99.60;;;;;;5045983;28;20181;-74
2021/08/29 07:53:31;;;;;;;2.87;1.80;;;13.60;99.80;;;;;;5041438;28;20201;-74
2021/08/29 07:55:57;;;;;;;3.00;1.67;;;13.60;99.70;;;;;;5047645;28;20547;-74
2021/08/29 07:58:22;;;;;;;2.47;1.70;;;13.60;99.70;;;;;;5042054;28;20415;-74
2021/08/29 08:00:48;;;;;;;1.87;1.40;;;13.60;99.90;;;;;;5043940;28;20189;-74
2021/08/29 08:03:14;;;;;;;3.77;2.30;;;13.70;99.90;;;;;;5045525;28;20228;-75
2021/08/29 08:05:40;;;;;;;1.97;1.57;;;13.80;99.90;;;;;;5043005;28;20272;-74
2021/08/29 08:08:05;;;;;;;2.60;2.20;;;13.90;99.90;;;;;;5046021;28;20682;-74
2021/08/29 08:10:32;;;;;;;2.33;1.60;;;13.90;99.80;;;;;;5041502;28;20181;-73
2021/08/29 08:12:58;;;;;;;2.07;1.43;;;13.90;99.70;;;;;;5046936;28;20461;-77
2021/08/29 08:15:24;;;;;;;1.60;1.33;;;14.00;99.60;;;;;;5047020;28;20824;-77
2021/08/29 08:17:50;;;;;;;3.47;1.50;;;14.00;99.50;;;;;;5050903;28;20498;-78
2021/08/29 08:20:16;;;;;;;2.17;1.50;;;14.00;99.40;;;;;;5052926;28;20426;-78
2021/08/29 08:22:44;;;;;;;2.40;1.87;;;14.10;99.50;;;;;;5045950;28;20446;-77
2021/08/29 08:25:10;;;;;;;3.00;1.90;;;14.10;99.60;;;;;;5050332;28;20799;-77
2021/08/29 08:27:36;;;;;;;2.60;1.77;;;14.20;99.50;;;;;;5053576;28;20515;-77
2021/08/29 08:30:04;;;;;;;2.20;1.80;;;14.30;99.50;;;;;;5053842;28;20430;-77
2021/08/29 08:32:30;;;;;;;3.10;1.80;;;14.30;99.30;;;;;;5047300;28;21028;-78
2021/08/29 08:34:56;;;;;;;2.27;1.60;;;14.40;99.40;;;;;;5049853;28;20605;-77
2021/08/29 08:37:22;;;;;;;1.73;1.40;;;14.50;99.40;;;;;;5041316;28;20201;-78
2021/08/29 08:39:48;;;;;;;1.90;1.77;;;14.50;99.30;;;;;;5050033;28;20514;-78
2021/08/29 08:42:16;;;;;;;3.20;1.80;;;14.50;99.20;;;;;;5050040;28;20200;-77
2021/08/29 08:44:47;;;;;;;3.43;1.97;;;14.50;99.10;;;;;;5049156;28;20407;-79
2021/08/29 08:47:20;;;;;;;2.00;1.63;;;14.50;99.00;;;;;;5050614;28;20470;-78
2021/08/29 08:49:46;;;;;;;2.43;1.63;;;14.40;99.00;;;;;;5055624;28;20422;-77
2021/08/29 08:52:16;;;;;;;2.77;1.67;;;14.40;99.30;;;;;;5050165;28;20525;-78
2021/08/29 08:54:43;;;;;;;3.50;2.17;;;14.40;99.30;;;;;;5046374;28;20525;-78
2021/08/29 08:57:09;;;;;;;5.00;3.23;;;14.30;99.50;;;;;;5051039;28;20430;-78
2021/08/29 08:59:38;;;;;;;5.43;3.60;;;14.40;99.80;;;;;;5042455;28;20431;-79
2021/08/29 09:02:04;;;;;;;4.17;2.53;;;14.50;99.90;;;;;;5052935;28;20447;-78
2021/08/29 09:04:29;;;;;;;4.40;2.83;;;14.50;99.90;;;;;;5063559;28;20453;-78
2021/08/29 09:06:58;;;;;;;5.70;3.40;;;14.50;99.90;;;;;;5057444;28;20453;-78
2021/08/29 09:09:23;;;;;;;4.80;3.30;;;14.50;99.90;;;;;;5055361;28;20242;-79
2021/08/29 09:11:49;;;;;;;5.07;3.03;;;14.60;99.90;;;;;;5061098;28;20972;-78
2021/08/29 09:14:15;;;;;;;5.40;2.87;;;14.60;99.90;;;;;;5053414;28;20230;-78
2021/08/29 09:16:50;;;;;;;4.50;2.70;;;14.70;99.90;;;;;;5053459;28;20199;-78
2021/08/29 09:19:18;;;;;;;68.27;33.20;;;14.70;99.90;;;;;;5052007;28;20215;-79
2021/08/29 09:21:43;;;;;;;7.77;4.17;;;14.80;99.90;;;;;;5048584;28;20494;-79
2021/08/29 09:24:12;;;;;;;7.40;4.10;;;14.90;99.90;;;;;;5041080;28;20494;-79
2021/08/29 09:26:43;;;;;;;7.10;3.70;;;14.90;99.90;;;;;;5041923;28;20223;-78
2021/08/29 09:29:22;;;;;;;4.80;2.40;;;14.90;99.80;;;;;;5036879;28;20834;-78
2021/08/29 09:31:49;;;;;;;4.93;2.70;;;14.90;99.50;;;;;;5039013;28;20581;-78
2021/08/29 09:34:18;;;;;;;3.30;2.00;;;15.00;99.50;;;;;;5057653;28;20803;-79
2021/08/29 09:36:44;;;;;;;2.87;1.90;;;15.10;99.40;;;;;;5054848;28;20662;-78
2021/08/29 09:39:15;;;;;;;2.50;2.00;;;15.10;99.20;;;;;;5062219;28;20453;-78
2021/08/29 09:41:42;;;;;;;2.40;1.50;;;15.10;99.30;;;;;;5051163;28;20204;-79
2021/08/29 09:44:18;;;;;;;2.67;1.67;;;15.20;99.30;;;;;;5058365;28;20458;-79
2021/08/29 09:46:58;;;;;;;2.03;1.30;;;15.20;99.10;;;;;;5056420;28;20462;-78
2021/08/29 09:49:28;;;;;;;2.47;1.60;;;15.30;99.10;;;;;;5044460;28;20441;-79
2021/08/29 09:51:56;;;;;;;2.77;1.40;;;15.30;99.10;;;;;;5051874;28;20413;-77
2021/08/29 09:54:31;;;;;;;1.23;0.90;;;15.30;99.10;;;;;;5053976;28;20414;-78
2021/08/29 09:56:59;;;;;;;1.23;1.10;;;15.20;98.90;;;;;;5055112;28;20415;-80
2021/08/29 09:59:48;;;;;;;1.50;1.03;;;15.20;98.90;;;;;;5055637;28;20423;-78
2021/08/29 10:02:28;;;;;;;1.43;0.90;;;15.20;98.60;;;;;;5051847;28;20439;-79
2021/08/29 10:05:19;;;;;;;1.83;1.40;;;15.10;98.80;;;;;;5054781;28;21003;-78
2021/08/29 10:08:09;;;;;;;4.03;1.70;;;15.20;98.90;;;;;;5098603;22;20627;-78
2021/08/29 10:10:39;;;;;;;1.83;1.37;;;15.10;99.00;;;;;;4985243;28;20466;-78
2021/08/29 10:13:07;;;;;;;2.30;1.17;;;15.20;98.90;;;;;;4992170;28;20549;-78
2021/08/29 10:18:09;;;;;;;2.27;1.60;;;15.20;99.20;;;;;;5185166;22;21089;-78
2021/08/29 10:20:36;;;;;;;3.17;1.90;;;15.20;99.00;;;;;;5008576;28;20437;-77
2021/08/29 10:23:03;;;;;;;4.43;2.87;;;15.20;99.00;;;;;;5012021;28;20449;-78
2021/08/29 10:25:31;;;;;;;3.00;1.90;;;15.30;99.20;;;;;;5005219;28;20429;-78
2021/08/29 10:28:06;;;;;;;5.43;2.80;;;15.30;99.00;;;;;;5004537;28;20465;-79
2021/08/29 10:30:33;;;;;;;4.80;3.07;;;15.40;98.90;;;;;;5000143;28;20467;-79
2021/08/29 10:33:04;;;;;;;4.77;3.17;;;15.40;98.60;;;;;;5014294;28;20445;-80
2021/08/29 10:35:32;;;;;;;5.10;2.83;;;15.20;98.40;;;;;;5012259;28;20420;-77
2021/08/29 10:37:58;;;;;;;3.70;2.43;;;15.10;98.70;;;;;;5024601;28;20540;-77
2021/08/29 10:40:24;;;;;;;5.30;3.40;;;15.20;98.90;;;;;;5017753;28;20441;-78
2021/08/29 10:42:50;;;;;;;6.97;4.93;;;15.30;99.20;;;;;;5014429;28;20522;-77
2021/08/29 10:45:16;;;;;;;7.60;4.97;;;15.30;98.80;;;;;;5013284;28;20915;-79
2021/08/29 10:47:44;;;;;;;8.67;5.77;;;15.30;98.90;;;;;;5011800;28;20476;-76
2021/08/29 10:50:16;;;;;;;8.50;5.40;;;15.30;99.10;;;;;;5013189;28;20193;-80
2021/08/29 10:52:42;;;;;;;8.50;4.80;;;15.20;99.00;;;;;;5010243;28;20457;-79
2021/08/29 10:55:10;;;;;;;8.87;5.27;;;15.30;98.80;;;;;;5011654;28;20424;-77
2021/08/29 10:57:40;;;;;;;7.20;5.20;;;15.40;98.80;;;;;;5011684;28;20445;-78
2021/08/29 11:00:26;;;;;;;6.77;4.93;;;15.60;98.10;;;;;;5010903;28;20967;-79
2021/08/29 11:02:52;;;;;;;6.83;5.20;;;15.70;97.60;;;;;;5010024;28;20966;-79
2021/08/29 11:05:27;;;;;;;8.73;5.47;;;15.80;97.10;;;;;;5005562;28;20506;-78
2021/08/29 11:07:54;;;;;;;5.70;4.23;;;15.80;97.00;;;;;;5016604;28;20467;-78
2021/08/29 11:10:38;;;;;;;5.07;3.40;;;15.90;97.10;;;;;;5010835;28;20896;-77
2021/08/29 11:13:32;;;;;;;5.20;4.20;;;15.90;95.20;;;;;;5011914;28;20467;-78
2021/08/29 11:16:12;;;;;;;6.23;4.33;;;16.10;96.10;;;;;;5007204;28;20733;-77
2021/08/29 11:19:03;;;;;;;5.17;4.23;;;16.30;95.60;;;;;;5003347;28;20440;-78
2021/08/29 11:21:32;;;;;;;6.63;3.90;;;16.30;94.90;;;;;;5009927;28;20491;-78
2021/08/29 11:23:57;;;;;;;8.60;5.10;;;16.20;94.50;;;;;;5012095;28;20451;-78
2021/08/29 11:26:31;;;;;;;6.37;4.50;;;16.20;94.80;;;;;;5015579;28;20424;-77
2021/08/29 11:28:57;;;;;;;5.47;4.60;;;16.30;95.40;;;;;;5017246;28;20877;-80
2021/08/29 11:31:49;;;;;;;7.60;4.60;;;16.40;94.60;;;;;;5018119;28;20475;-78
2021/08/29 11:34:15;;;;;;;5.63;5.10;;;16.70;95.00;;;;;;5013151;28;20190;-79
2021/08/29 11:36:41;;;;;;;8.60;5.80;;;16.90;94.80;;;;;;5015087;28;20521;-77
2021/08/29 11:39:29;;;;;;;6.03;4.97;;;17.00;94.80;;;;;;5017035;28;20419;-77
2021/08/29 11:42:14;;;;;;;4.70;3.87;;;17.10;93.70;;;;;;5024199;28;20277;-78
2021/08/29 11:44:40;;;;;;;4.87;3.70;;;17.20;91.80;;;;;;5013108;28;20424;-75
2021/08/29 11:47:06;;;;;;;6.00;4.37;;;17.20;91.60;;;;;;5014056;28;20470;-80
2021/08/29 11:49:32;;;;;;;5.93;4.30;;;17.40;91.80;;;;;;5013514;28;20263;-75
2021/08/29 11:51:58;;;;;;;7.03;4.80;;;17.50;91.90;;;;;;5013840;28;20430;-77
2021/08/29 11:54:24;;;;;;;5.23;4.03;;;17.60;91.20;;;;;;5010856;28;20433;-74
2021/08/29 11:56:50;;;;;;;4.93;3.80;;;17.30;91.10;;;;;;5006068;28;20197;-75
2021/08/29 11:59:35;;;;;;;5.70;4.53;;;17.20;91.20;;;;;;5010538;28;20439;-77
2021/08/29 12:02:01;;;;;;;5.57;4.20;;;17.20;91.80;;;;;;5006668;28;20450;-74
2021/08/29 12:04:27;;;;;;;4.90;3.77;;;17.10;91.80;;;;;;5010477;28;20503;-76
2021/08/29 12:07:05;;;;;;;4.53;3.67;;;17.00;91.50;;;;;;5010159;28;20471;-75
2021/08/29 12:09:42;;;;;;;5.43;4.00;;;16.80;91.70;;;;;;5009937;28;20440;-75
2021/08/29 12:12:16;;;;;;;6.03;4.47;;;16.70;92.30;;;;;;5010624;28;20531;-72
2021/08/29 12:14:42;;;;;;;3.57;3.30;;;16.70;93.20;;;;;;5009338;28;20548;-74
2021/08/29 12:17:12;;;;;;;4.93;3.80;;;16.50;92.70;;;;;;5010488;28;20823;-72
2021/08/29 12:19:40;;;;;;;4.20;3.23;;;16.30;93.40;;;;;;5010157;28;20421;-73
2021/08/29 12:22:09;;;;;;;4.80;3.70;;;16.30;93.80;;;;;;5008706;28;20593;-73
2021/08/29 12:24:40;;;;;;;7.40;4.37;;;16.30;94.30;;;;;;5010104;28;20835;-74
2021/08/29 12:27:15;;;;;;;6.90;4.40;;;16.30;94.90;;;;;;5010149;28;20485;-76
2021/08/29 12:29:52;;;;;;;5.03;3.73;;;16.20;94.20;;;;;;5011264;28;20479;-75
2021/08/29 12:32:18;;;;;;;6.17;4.30;;;16.10;94.70;;;;;;5008961;28;20429;-74
2021/08/29 12:35:05;;;;;;;6.83;4.30;;;16.10;95.10;;;;;;5009691;28;20454;-75
2021/08/29 12:37:33;;;;;;;6.07;4.30;;;16.10;95.10;;;;;;5001373;28;21219;-73
2021/08/29 12:40:10;;;;;;;5.87;4.17;;;16.10;94.50;;;;;;5006670;28;20846;-76
2021/08/29 12:42:41;;;;;;;7.10;4.27;;;16.30;95.10;;;;;;5010446;28;20452;-75
2021/08/29 12:45:09;;;;;;;5.53;4.17;;;16.30;94.50;;;;;;5007059;28;20898;-74
2021/08/29 12:47:35;;;;;;;5.60;4.03;;;16.40;94.30;;;;;;5009784;28;20883;-76
2021/08/29 12:50:03;;;;;;;5.70;3.80;;;16.60;93.20;;;;;;5007149;28;20437;-74
2021/08/29 12:52:40;;;;;;;5.90;4.17;;;16.40;92.70;;;;;;5004188;28;20457;-73